Time;durP1;ratioP1;P1;durP2;ratioP2;P2;SDS_P1;SDS_P2;PMS_P1;PMS_P2;Temp;Humidity;BMP_temperature;BMP_pressure;BME280_temperature;BME280_humidity;BME280_pressure;Samples;Min_cycle;Max_cycle;Signal;HPM_P1;HPM_P2
2023/05/03 00:01:07;;;;;;;9.70;8.73;;;;;;;;;;5013493;28;20421;-58
2023/05/03 00:03:33;;;;;;;9.40;8.50;;;;;;;;;;5013511;28;20420;-58
2023/05/03 00:06:08;;;;;;;8.53;7.80;;;;;;;;;;5013418;28;20436;-57
2023/05/03 00:08:34;;;;;;;9.57;8.67;;;;;;;;;;5013385;28;20416;-58
2023/05/03 00:11:00;;;;;;;10.70;8.90;;;;;;;;;;5013384;28;20502;-58
2023/05/03 00:13:26;;;;;;;8.73;7.90;;;;;;;;;;5013097;28;20780;-58
2023/05/03 00:15:52;;;;;;;9.33;8.23;;;;;;;;;;5013602;28;20473;-58
2023/05/03 00:18:18;;;;;;;9.87;8.10;;;;;;;;;;5013356;28;20417;-58
2023/05/03 00:20:44;;;;;;;8.90;8.10;;;;;;;;;;5013066;28;20524;-58
2023/05/03 00:23:10;;;;;;;8.07;7.50;;;;;;;;;;5013115;28;20743;-58
2023/05/03 00:25:36;;;;;;;8.70;7.90;;;;;;;;;;5013061;28;20437;-58
2023/05/03 00:28:02;;;;;;;10.00;8.60;;;;;;;;;;5009769;28;20430;-58
2023/05/03 00:30:28;;;;;;;8.70;7.90;;;;;;;;;;4993532;28;20915;-57
2023/05/03 00:32:54;;;;;;;9.47;8.47;;;;;;;;;;4993543;28;20401;-58
2023/05/03 00:35:20;;;;;;;8.83;7.93;;;;;;;;;;4993242;28;20465;-58
2023/05/03 00:37:46;;;;;;;10.20;8.10;;;;;;;;;;4993262;28;20794;-58
2023/05/03 00:40:15;;;;;;;9.40;8.60;;;;;;;;;;4993298;28;20414;-59
2023/05/03 00:42:41;;;;;;;9.33;8.40;;;;;;;;;;4993710;28;20444;-57
2023/05/03 00:45:07;;;;;;;19.83;8.67;;;;;;;;;;4993385;28;20414;-57
2023/05/03 00:47:35;;;;;;;10.33;8.57;;;;;;;;;;4993316;28;20437;-58
2023/05/03 00:50:01;;;;;;;9.87;8.73;;;;;;;;;;4993097;28;20425;-58
2023/05/03 00:52:28;;;;;;;11.37;9.37;;;;;;;;;;4993121;28;20414;-59
2023/05/03 00:54:54;;;;;;;9.70;8.73;;;;;;;;;;4993020;28;20825;-58
2023/05/03 00:57:21;;;;;;;10.17;8.87;;;;;;;;;;4993027;28;20499;-58
2023/05/03 00:59:47;;;;;;;14.27;9.97;;;;;;;;;;4993139;28;20405;-57
2023/05/03 01:02:18;;;;;;;14.00;9.50;;;;;;;;;;4993238;28;20441;-57
2023/05/03 01:04:44;;;;;;;9.77;8.87;;;;;;;;;;4992909;28;20433;-59
2023/05/03 01:07:29;;;;;;;10.63;9.63;;;;;;;;;;4992672;28;20491;-58
2023/05/03 01:09:55;;;;;;;11.13;10.00;;;;;;;;;;4992853;28;20916;-58
2023/05/03 01:12:36;;;;;;;13.90;9.60;;;;;;;;;;4992708;28;20504;-58
2023/05/03 01:15:15;;;;;;;10.70;8.90;;;;;;;;;;4992870;28;20539;-58
2023/05/03 01:17:49;;;;;;;12.90;10.67;;;;;;;;;;4992723;28;20441;-58
2023/05/03 01:20:17;;;;;;;11.87;10.17;;;;;;;;;;4992980;28;20742;-58
2023/05/03 01:22:46;;;;;;;13.53;10.57;;;;;;;;;;4992704;28;20429;-58
2023/05/03 01:25:15;;;;;;;15.07;10.50;;;;;;;;;;4992686;28;20485;-58
2023/05/03 01:27:44;;;;;;;11.50;9.33;;;;;;;;;;4992628;28;20433;-58
2023/05/03 01:30:11;;;;;;;18.77;10.27;;;;;;;;;;4992770;28;20421;-58
2023/05/03 01:32:40;;;;;;;10.83;9.87;;;;;;;;;;4992663;28;20963;-58
2023/05/03 01:35:19;;;;;;;16.03;10.43;;;;;;;;;;4992357;28;20568;-58
2023/05/03 01:37:45;;;;;;;12.53;11.23;;;;;;;;;;4992699;28;20413;-59
2023/05/03 01:40:15;;;;;;;11.90;10.33;;;;;;;;;;4992687;28;20441;-58
2023/05/03 01:42:41;;;;;;;14.07;10.30;;;;;;;;;;4992679;28;20761;-58
2023/05/03 01:45:08;;;;;;;19.73;10.50;;;;;;;;;;4992481;28;20441;-58
2023/05/03 01:47:34;;;;;;;11.13;10.03;;;;;;;;;;4992524;28;20417;-58
2023/05/03 01:50:00;;;;;;;11.57;10.47;;;;;;;;;;4992445;28;20421;-58
2023/05/03 01:52:26;;;;;;;14.30;11.90;;;;;;;;;;4992515;28;20429;-58
2023/05/03 01:54:52;;;;;;;15.80;10.80;;;;;;;;;;4992488;28;20550;-58
2023/05/03 01:57:18;;;;;;;14.00;11.23;;;;;;;;;;4992474;28;20531;-58
2023/05/03 01:59:44;;;;;;;11.67;10.67;;;;;;;;;;4992335;28;20458;-58
2023/05/03 02:02:10;;;;;;;14.80;10.90;;;;;;;;;;4991032;28;20540;-58
2023/05/03 02:04:36;;;;;;;11.83;10.63;;;;;;;;;;4993461;28;20468;-58
2023/05/03 02:07:02;;;;;;;15.37;11.20;;;;;;;;;;4995802;28;20425;-58
2023/05/03 02:09:28;;;;;;;11.43;10.23;;;;;;;;;;4995804;28;20432;-58
2023/05/03 02:11:54;;;;;;;15.90;11.10;;;;;;;;;;4995758;28;20421;-58
2023/05/03 02:14:20;;;;;;;12.20;11.00;;;;;;;;;;4995644;28;20974;-57
2023/05/03 02:16:47;;;;;;;11.53;10.33;;;;;;;;;;4995711;28;20413;-58
2023/05/03 02:19:13;;;;;;;14.03;10.20;;;;;;;;;;4995610;28;20500;-58
2023/05/03 02:21:39;;;;;;;15.67;11.13;;;;;;;;;;4995490;28;20505;-58
2023/05/03 02:24:07;;;;;;;12.10;10.90;;;;;;;;;;4994280;28;20453;-58
2023/05/03 02:26:33;;;;;;;14.30;12.03;;;;;;;;;;4995429;28;20916;-57
2023/05/03 02:29:00;;;;;;;19.60;11.47;;;;;;;;;;4995329;28;20951;-58
2023/05/03 02:31:26;;;;;;;12.93;11.00;;;;;;;;;;4995380;28;20428;-58
2023/05/03 02:33:53;;;;;;;14.37;11.87;;;;;;;;;;4995377;28;20493;-58
2023/05/03 02:36:25;;;;;;;14.97;12.17;;;;;;;;;;4995550;28;20418;-58
2023/05/03 02:38:50;;;;;;;11.83;10.77;;;;;;;;;;4995530;28;20548;-58
2023/05/03 02:41:16;;;;;;;18.80;11.63;;;;;;;;;;4995075;28;21094;-58
2023/05/03 02:43:42;;;;;;;20.13;11.77;;;;;;;;;;4995138;28;20418;-58
2023/05/03 02:46:08;;;;;;;13.23;11.90;;;;;;;;;;4994861;28;20487;-58
2023/05/03 02:48:34;;;;;;;15.67;12.00;;;;;;;;;;4995022;28;20421;-58
2023/05/03 02:51:00;;;;;;;12.60;11.30;;;;;;;;;;4995155;28;20402;-56
2023/05/03 02:53:26;;;;;;;12.10;10.90;;;;;;;;;;4995223;28;20805;-58
2023/05/03 02:55:52;;;;;;;16.73;12.37;;;;;;;;;;4995225;28;20465;-58
2023/05/03 02:58:18;;;;;;;15.33;11.07;;;;;;;;;;4995099;28;20483;-58
2023/05/03 03:00:44;;;;;;;12.13;10.93;;;;;;;;;;4994775;28;20492;-58
2023/05/03 03:03:10;;;;;;;21.30;12.53;;;;;;;;;;4994748;28;20492;-58
2023/05/03 03:05:36;;;;;;;16.00;12.20;;;;;;;;;;4994893;28;20415;-56
2023/05/03 03:08:02;;;;;;;20.23;11.60;;;;;;;;;;4993762;28;20425;-58
2023/05/03 03:10:28;;;;;;;17.53;11.97;;;;;;;;;;4994631;28;20418;-58
2023/05/03 03:12:56;;;;;;;15.67;13.10;;;;;;;;;;4994750;28;20963;-58
2023/05/03 03:15:22;;;;;;;16.73;12.80;;;;;;;;;;4993967;28;20527;-57
2023/05/03 03:17:56;;;;;;;16.00;12.23;;;;;;;;;;4993864;28;20409;-58
2023/05/03 03:20:24;;;;;;;18.00;12.87;;;;;;;;;;4994549;28;20433;-58
2023/05/03 03:22:50;;;;;;;23.30;14.17;;;;;;;;;;4994494;28;20410;-58
2023/05/03 03:25:16;;;;;;;14.00;11.60;;;;;;;;;;4994317;28;20826;-57
2023/05/03 03:27:42;;;;;;;16.37;13.03;;;;;;;;;;4994401;28;20409;-57
2023/05/03 03:30:09;;;;;;;18.80;13.53;;;;;;;;;;4994135;28;20799;-58
2023/05/03 03:32:35;;;;;;;15.00;12.43;;;;;;;;;;4994567;28;20438;-57
2023/05/03 03:35:03;;;;;;;21.50;13.53;;;;;;;;;;4994096;28;20480;-58
2023/05/03 03:37:29;;;;;;;14.40;12.60;;;;;;;;;;4994026;28;20446;-58
2023/05/03 03:39:56;;;;;;;16.80;13.63;;;;;;;;;;4993994;28;20412;-58
2023/05/03 03:42:23;;;;;;;26.57;13.47;;;;;;;;;;4994008;28;20437;-58
2023/05/03 03:44:49;;;;;;;16.33;13.00;;;;;;;;;;4993977;28;20421;-57
2023/05/03 03:47:15;;;;;;;15.07;13.37;;;;;;;;;;4994052;28;21198;-58
2023/05/03 03:49:41;;;;;;;15.37;13.60;;;;;;;;;;4993948;28;20419;-58
2023/05/03 03:52:07;;;;;;;17.77;13.20;;;;;;;;;;4993905;28;20453;-58
2023/05/03 03:54:34;;;;;;;16.23;12.80;;;;;;;;;;4993817;28;20531;-58
2023/05/03 03:57:06;;;;;;;19.20;14.27;;;;;;;;;;4993750;28;20479;-58
2023/05/03 03:59:31;;;;;;;22.93;14.33;;;;;;;;;;4992541;28;20445;-58
2023/05/03 04:01:57;;;;;;;16.63;13.63;;;;;;;;;;4993691;28;20434;-58
2023/05/03 04:04:23;;;;;;;15.83;13.63;;;;;;;;;;4993654;28;20490;-59
2023/05/03 04:06:49;;;;;;;13.70;12.27;;;;;;;;;;4993768;28;20441;-58
2023/05/03 04:09:16;;;;;;;15.53;13.07;;;;;;;;;;4993581;28;20912;-58
2023/05/03 04:11:42;;;;;;;14.30;12.10;;;;;;;;;;4993217;28;20441;-59
2023/05/03 04:14:08;;;;;;;22.33;14.20;;;;;;;;;;4993559;28;20935;-59
2023/05/03 04:16:34;;;;;;;15.00;13.03;;;;;;;;;;4993368;28;20620;-59
2023/05/03 04:19:03;;;;;;;17.10;13.97;;;;;;;;;;4993546;28;20410;-59
2023/05/03 04:21:29;;;;;;;20.73;13.70;;;;;;;;;;4993478;28;20445;-58
2023/05/03 04:23:55;;;;;;;19.97;13.67;;;;;;;;;;4993137;28;20437;-59
2023/05/03 04:26:21;;;;;;;15.27;12.70;;;;;;;;;;4993537;28;20568;-59
2023/05/03 04:28:50;;;;;;;14.37;12.93;;;;;;;;;;4992950;28;20963;-58
2023/05/03 04:31:17;;;;;;;15.93;12.37;;;;;;;;;;4993346;28;20418;-59
2023/05/03 04:33:43;;;;;;;15.50;12.50;;;;;;;;;;4993183;28;20448;-58
2023/05/03 04:36:09;;;;;;;17.47;13.43;;;;;;;;;;4993263;28;20451;-58
2023/05/03 04:38:35;;;;;;;19.80;14.77;;;;;;;;;;4993185;28;20443;-59
2023/05/03 04:41:05;;;;;;;22.70;14.40;;;;;;;;;;4993128;28;20432;-59
2023/05/03 04:43:31;;;;;;;59.10;42.20;;;;;;;;;;4993067;28;20449;-58
2023/05/03 04:45:57;;;;;;;14.20;12.30;;;;;;;;;;4993522;28;20879;-58
2023/05/03 04:48:23;;;;;;;21.53;17.13;;;;;;;;;;4993355;28;20426;-59
2023/05/03 04:50:51;;;;;;;17.07;12.87;;;;;;;;;;4993051;28;20445;-58
2023/05/03 04:53:17;;;;;;;27.57;14.20;;;;;;;;;;4993079;28;20417;-58
2023/05/03 04:55:43;;;;;;;15.63;12.67;;;;;;;;;;4992913;28;20477;-58
2023/05/03 04:58:09;;;;;;;16.50;12.50;;;;;;;;;;4992969;28;20805;-58
2023/05/03 05:00:35;;;;;;;21.03;14.40;;;;;;;;;;4991505;28;20477;-58
2023/05/03 05:03:01;;;;;;;15.13;13.57;;;;;;;;;;4993023;28;20900;-57
2023/05/03 05:05:27;;;;;;;14.60;12.97;;;;;;;;;;4992931;28;20548;-58
2023/05/03 05:07:53;;;;;;;16.43;13.17;;;;;;;;;;4992935;28;20769;-59
2023/05/03 05:10:21;;;;;;;17.77;12.90;;;;;;;;;;4992854;28;20508;-58
2023/05/03 05:12:49;;;;;;;18.33;12.80;;;;;;;;;;4992863;28;20507;-58
2023/05/03 05:15:18;;;;;;;16.40;12.73;;;;;;;;;;4992786;28;20465;-59
2023/05/03 05:17:44;;;;;;;19.40;13.13;;;;;;;;;;4992892;28;20436;-59
2023/05/03 05:20:12;;;;;;;18.13;13.60;;;;;;;;;;4992763;28;20799;-59
2023/05/03 05:22:38;;;;;;;24.93;12.70;;;;;;;;;;4992582;28;20921;-57
2023/05/03 05:25:05;;;;;;;29.60;17.60;;;;;;;;;;4992854;28;20953;-58
2023/05/03 05:27:31;;;;;;;21.97;13.33;;;;;;;;;;4992691;28;20789;-58
2023/05/03 05:30:00;;;;;;;19.03;14.00;;;;;;;;;;4992758;28;20515;-58
2023/05/03 05:32:26;;;;;;;17.97;13.83;;;;;;;;;;4991447;28;20417;-58
2023/05/03 05:34:54;;;;;;;18.27;13.70;;;;;;;;;;4992261;28;20522;-58
2023/05/03 05:37:23;;;;;;;17.13;12.53;;;;;;;;;;4993011;28;20441;-58
2023/05/03 05:39:49;;;;;;;15.50;12.60;;;;;;;;;;4993819;28;20451;-58
2023/05/03 05:42:15;;;;;;;17.70;12.10;;;;;;;;;;4996228;28;20424;-57
2023/05/03 05:44:41;;;;;;;20.00;12.53;;;;;;;;;;4996179;28;20437;-57
2023/05/03 05:47:08;;;;;;;16.83;12.00;;;;;;;;;;4996122;28;20781;-58
2023/05/03 05:49:36;;;;;;;16.00;12.30;;;;;;;;;;4996201;28;20787;-57
2023/05/03 05:52:02;;;;;;;15.27;12.07;;;;;;;;;;4996112;28;20418;-59
2023/05/03 05:54:28;;;;;;;14.87;12.43;;;;;;;;;;4996080;28;20547;-58
2023/05/03 05:56:54;;;;;;;26.07;14.90;;;;;;;;;;4995928;28;20872;-58
2023/05/03 05:59:22;;;;;;;22.63;13.10;;;;;;;;;;4996341;28;20409;-59
2023/05/03 06:01:49;;;;;;;22.30;13.10;;;;;;;;;;4996252;28;20497;-59
2023/05/03 06:04:15;;;;;;;20.20;13.30;;;;;;;;;;4995848;28;20457;-59
2023/05/03 06:06:44;;;;;;;20.80;13.80;;;;;;;;;;4995962;28;20505;-58
2023/05/03 06:09:10;;;;;;;17.50;13.03;;;;;;;;;;4995996;28;20429;-59
2023/05/03 06:11:37;;;;;;;15.67;12.80;;;;;;;;;;4996213;28;20433;-56
2023/05/03 06:14:08;;;;;;;20.47;12.93;;;;;;;;;;4995943;28;20475;-57
2023/05/03 06:16:34;;;;;;;19.57;13.73;;;;;;;;;;4996015;28;20394;-58
2023/05/03 06:19:00;;;;;;;19.77;12.77;;;;;;;;;;4995470;28;20450;-58
2023/05/03 06:21:27;;;;;;;18.53;13.33;;;;;;;;;;4995675;28;20425;-57
2023/05/03 06:23:53;;;;;;;25.37;16.57;;;;;;;;;;4995180;28;20839;-59
2023/05/03 06:26:19;;;;;;;16.60;13.53;;;;;;;;;;4995338;28;20513;-59
2023/05/03 06:28:46;;;;;;;20.03;13.70;;;;;;;;;;4995246;28;20454;-58
2023/05/03 06:31:12;;;;;;;19.87;12.50;;;;;;;;;;4995216;28;20429;-58
2023/05/03 06:33:38;;;;;;;19.63;12.77;;;;;;;;;;4995241;28;20409;-58
2023/05/03 06:36:06;;;;;;;22.33;12.23;;;;;;;;;;4994996;28;20795;-57
2023/05/03 06:38:33;;;;;;;18.27;12.73;;;;;;;;;;4995199;28;20449;-59
2023/05/03 06:41:01;;;;;;;16.30;13.20;;;;;;;;;;4995132;28;20436;-59
2023/05/03 06:43:27;;;;;;;15.07;12.90;;;;;;;;;;4994999;28;20405;-57
2023/05/03 06:45:53;;;;;;;19.77;13.00;;;;;;;;;;4994854;28;20429;-60
2023/05/03 06:48:21;;;;;;;13.90;11.60;;;;;;;;;;4994948;28;20538;-60
2023/05/03 06:50:48;;;;;;;15.80;12.77;;;;;;;;;;4994659;28;20468;-58
2023/05/03 06:53:16;;;;;;;19.17;12.27;;;;;;;;;;4993662;28;20495;-57
2023/05/03 06:55:45;;;;;;;16.57;12.60;;;;;;;;;;4994691;28;20487;-59
2023/05/03 06:58:11;;;;;;;31.10;12.03;;;;;;;;;;4994766;28;20929;-59
2023/05/03 07:00:38;;;;;;;20.30;13.80;;;;;;;;;;4994791;28;20786;-58
2023/05/03 07:03:07;;;;;;;18.13;14.13;;;;;;;;;;4994571;28;20429;-57
2023/05/03 07:05:33;;;;;;;17.57;12.60;;;;;;;;;;4994711;28;20957;-59
2023/05/03 07:07:59;;;;;;;13.50;12.00;;;;;;;;;;4994650;28;20441;-59
2023/05/03 07:10:28;;;;;;;14.00;12.30;;;;;;;;;;4994576;28;20417;-57
2023/05/03 07:12:57;;;;;;;18.83;12.90;;;;;;;;;;4994681;28;20429;-59
2023/05/03 07:15:23;;;;;;;17.20;13.00;;;;;;;;;;4994263;28;20527;-57
2023/05/03 07:17:49;;;;;;;16.33;12.10;;;;;;;;;;4994496;28;20838;-58
2023/05/03 07:20:17;;;;;;;16.17;12.30;;;;;;;;;;4994340;28;20465;-59
2023/05/03 07:22:43;;;;;;;12.63;11.20;;;;;;;;;;4994507;28;20405;-59
2023/05/03 07:25:11;;;;;;;13.23;11.40;;;;;;;;;;4994201;28;20441;-57
2023/05/03 07:27:37;;;;;;;18.20;12.47;;;;;;;;;;4994503;28;20426;-58
2023/05/03 07:30:06;;;;;;;16.10;13.00;;;;;;;;;;4994167;28;20483;-59
2023/05/03 07:32:32;;;;;;;13.50;11.63;;;;;;;;;;4994344;28;20394;-59
2023/05/03 07:34:58;;;;;;;17.43;12.27;;;;;;;;;;4993968;28;20531;-58
2023/05/03 07:37:26;;;;;;;14.57;12.47;;;;;;;;;;4993946;28;20440;-58
2023/05/03 07:39:52;;;;;;;17.17;12.10;;;;;;;;;;4993979;28;20412;-58
2023/05/03 07:42:18;;;;;;;14.00;12.00;;;;;;;;;;4994158;28;20542;-58
2023/05/03 07:44:47;;;;;;;13.83;11.70;;;;;;;;;;4993516;28;20927;-59
2023/05/03 07:47:18;;;;;;;15.20;11.20;;;;;;;;;;4992509;28;20546;-59
2023/05/03 07:49:46;;;;;;;12.43;11.20;;;;;;;;;;4994037;28;20447;-59
2023/05/03 07:52:12;;;;;;;13.07;11.47;;;;;;;;;;4993730;28;20422;-57
2023/05/03 07:54:41;;;;;;;12.53;11.23;;;;;;;;;;4993814;28;20464;-59
2023/05/03 07:57:07;;;;;;;17.47;12.87;;;;;;;;;;4993524;28;20417;-59
2023/05/03 07:59:33;;;;;;;18.03;12.60;;;;;;;;;;4993409;28;20567;-59
2023/05/03 08:01:59;;;;;;;16.77;11.90;;;;;;;;;;4993105;28;20915;-57
2023/05/03 08:04:25;;;;;;;17.03;12.63;;;;;;;;;;4993353;28;20436;-59
2023/05/03 08:06:51;;;;;;;12.70;10.97;;;;;;;;;;4993499;28;20402;-58
2023/05/03 08:09:17;;;;;;;12.67;11.40;;;;;;;;;;4993542;28;20786;-59
2023/05/03 08:11:43;;;;;;;17.03;11.40;;;;;;;;;;4993509;28;20422;-59
2023/05/03 08:14:10;;;;;;;15.83;11.30;;;;;;;;;;4993392;28;20983;-59
2023/05/03 08:16:36;;;;;;;15.20;11.60;;;;;;;;;;4993391;28;20826;-59
2023/05/03 08:19:03;;;;;;;14.77;11.10;;;;;;;;;;4993104;28;20413;-58
2023/05/03 08:21:29;;;;;;;18.90;15.87;;;;;;;;;;4991808;28;20422;-58
2023/05/03 08:23:55;;;;;;;12.73;11.47;;;;;;;;;;4993426;28;20437;-58
2023/05/03 08:26:23;;;;;;;19.30;11.00;;;;;;;;;;4992998;28;20478;-57
2023/05/03 08:28:49;;;;;;;14.10;11.80;;;;;;;;;;4993233;28;20429;-59
2023/05/03 08:31:15;;;;;;;19.80;11.57;;;;;;;;;;4992778;28;20406;-59
2023/05/03 08:33:42;;;;;;;21.80;13.20;;;;;;;;;;4992864;28;20406;-58
2023/05/03 08:36:08;;;;;;;19.73;15.93;;;;;;;;;;4992946;28;20465;-59
2023/05/03 08:38:39;;;;;;;14.00;11.30;;;;;;;;;;4993016;28;20842;-59
2023/05/03 08:41:18;;;;;;;15.90;11.23;;;;;;;;;;4993024;28;20445;-59
2023/05/03 08:43:45;;;;;;;19.27;11.87;;;;;;;;;;4993066;28;20830;-59
2023/05/03 08:46:14;;;;;;;14.53;10.40;;;;;;;;;;4993135;28;20427;-59
2023/05/03 08:48:40;;;;;;;16.50;11.60;;;;;;;;;;4992918;28;20450;-58
2023/05/03 08:51:07;;;;;;;14.03;11.13;;;;;;;;;;4992861;28;20423;-58
2023/05/03 08:53:33;;;;;;;15.00;10.60;;;;;;;;;;4992870;28;20434;-58
2023/05/03 08:55:59;;;;;;;11.33;10.23;;;;;;;;;;4992974;28;20468;-58
2023/05/03 08:58:25;;;;;;;10.90;10.00;;;;;;;;;;4992907;28;20414;-59
2023/05/03 09:00:54;;;;;;;15.30;9.87;;;;;;;;;;4992725;28;20439;-57
2023/05/03 09:03:20;;;;;;;12.17;10.40;;;;;;;;;;4992519;28;20515;-58
2023/05/03 09:05:46;;;;;;;10.93;9.93;;;;;;;;;;4991481;28;20459;-58
2023/05/03 09:08:13;;;;;;;11.47;10.47;;;;;;;;;;4992791;28;20425;-59
2023/05/03 09:10:42;;;;;;;14.50;10.80;;;;;;;;;;4992443;28;20428;-58
2023/05/03 09:13:08;;;;;;;15.77;10.27;;;;;;;;;;4991825;28;20439;-58
2023/05/03 09:15:35;;;;;;;13.83;9.80;;;;;;;;;;4996842;28;20468;-58
2023/05/03 09:18:07;;;;;;;11.20;9.67;;;;;;;;;;4996647;28;20511;-58
2023/05/03 09:20:37;;;;;;;10.47;9.47;;;;;;;;;;4995367;28;20420;-57
2023/05/03 09:23:03;;;;;;;13.40;9.33;;;;;;;;;;4996858;28;20443;-59
2023/05/03 09:25:41;;;;;;;18.93;10.83;;;;;;;;;;4996329;28;20420;-58
2023/05/03 09:28:08;;;;;;;16.50;9.70;;;;;;;;;;4996269;28;20464;-59
2023/05/03 09:30:34;;;;;;;18.53;10.77;;;;;;;;;;4996348;28;20900;-58
2023/05/03 09:33:00;;;;;;;13.03;9.90;;;;;;;;;;4996280;28;20875;-59
2023/05/03 09:35:27;;;;;;;12.40;10.10;;;;;;;;;;4996201;28;20559;-59
2023/05/03 09:37:53;;;;;;;13.50;9.53;;;;;;;;;;4996261;28;20815;-58
2023/05/03 09:40:19;;;;;;;13.40;10.00;;;;;;;;;;4996499;28;20416;-59
2023/05/03 09:43:05;;;;;;;10.77;9.60;;;;;;;;;;4994794;28;20516;-58
2023/05/03 09:45:33;;;;;;;11.30;10.23;;;;;;;;;;4996092;28;20499;-58
2023/05/03 09:48:00;;;;;;;11.30;9.93;;;;;;;;;;4996173;28;20429;-58
2023/05/03 09:50:27;;;;;;;10.63;9.53;;;;;;;;;;4996100;28;20888;-58
2023/05/03 09:52:56;;;;;;;15.70;10.40;;;;;;;;;;4996183;28;20769;-57
2023/05/03 09:55:23;;;;;;;9.70;8.90;;;;;;;;;;4995818;28;20476;-59
2023/05/03 09:57:51;;;;;;;10.07;9.30;;;;;;;;;;4996291;28;20408;-57
2023/05/03 10:00:19;;;;;;;10.40;8.60;;;;;;;;;;4995920;28;20917;-58
2023/05/03 10:02:47;;;;;;;14.57;9.40;;;;;;;;;;4995721;28;20520;-58
2023/05/03 10:05:15;;;;;;;9.77;8.97;;;;;;;;;;4995878;28;20413;-59
2023/05/03 10:07:42;;;;;;;16.53;9.13;;;;;;;;;;4995687;28;20440;-59
2023/05/03 10:10:08;;;;;;;9.93;8.83;;;;;;;;;;4995633;28;20433;-59
2023/05/03 10:12:35;;;;;;;10.53;9.30;;;;;;;;;;4995667;28;20481;-58
2023/05/03 10:15:03;;;;;;;10.50;9.50;;;;;;;;;;4995815;28;20476;-59
2023/05/03 10:17:32;;;;;;;12.03;9.47;;;;;;;;;;4995802;28;20412;-59
2023/05/03 10:20:19;;;;;;;9.40;8.60;;;;;;;;;;4995480;28;20422;-56
2023/05/03 10:23:04;;;;;;;13.40;9.87;;;;;;;;;;4995077;28;20850;-56
2023/05/03 10:25:30;;;;;;;9.60;8.70;;;;;;;;;;4995393;28;20449;-57
2023/05/03 10:28:03;;;;;;;10.50;8.70;;;;;;;;;;4995715;28;20493;-56
2023/05/03 10:30:33;;;;;;;18.17;9.73;;;;;;;;;;4995809;28;20419;-58
2023/05/03 10:33:00;;;;;;;10.27;9.37;;;;;;;;;;4995685;28;20434;-57
2023/05/03 10:35:27;;;;;;;9.07;8.27;;;;;;;;;;4995549;28;20505;-56
2023/05/03 10:37:55;;;;;;;8.27;7.63;;;;;;;;;;4995373;28;20781;-57
2023/05/03 10:40:21;;;;;;;8.83;7.97;;;;;;;;;;4996200;28;20434;-57
2023/05/03 10:43:05;;;;;;;9.07;8.23;;;;;;;;;;4995397;28;20441;-57
2023/05/03 10:45:32;;;;;;;9.17;7.60;;;;;;;;;;4995651;28;20489;-56
2023/05/03 10:48:10;;;;;;;7.63;6.87;;;;;;;;;;4994154;28;20440;-57
2023/05/03 10:50:39;;;;;;;7.13;6.53;;;;;;;;;;4995482;28;20490;-57
2023/05/03 10:53:05;;;;;;;9.97;6.87;;;;;;;;;;4995319;28;20978;-57
2023/05/03 10:55:31;;;;;;;10.43;6.90;;;;;;;;;;4994207;28;20471;-57
2023/05/03 10:57:58;;;;;;;13.33;6.33;;;;;;;;;;4995164;28;20428;-58
2023/05/03 11:00:24;;;;;;;7.20;5.90;;;;;;;;;;4995361;28;20394;-57
2023/05/03 11:02:53;;;;;;;12.50;7.13;;;;;;;;;;4995300;28;20414;-58
2023/05/03 11:05:22;;;;;;;11.47;6.27;;;;;;;;;;4995136;28;20431;-57
2023/05/03 11:07:48;;;;;;;10.13;6.20;;;;;;;;;;4995161;28;20546;-56
2023/05/03 11:10:17;;;;;;;12.17;5.43;;;;;;;;;;4994920;28;20517;-57
2023/05/03 11:12:47;;;;;;;4.30;4.00;;;;;;;;;;4995074;28;20806;-58
2023/05/03 11:15:13;;;;;;;8.37;4.57;;;;;;;;;;4994692;28;20466;-57
2023/05/03 11:17:42;;;;;;;5.30;4.93;;;;;;;;;;4995033;28;20781;-56
2023/05/03 11:20:08;;;;;;;7.17;4.87;;;;;;;;;;4995090;28;20502;-56
2023/05/03 11:22:35;;;;;;;4.27;3.77;;;;;;;;;;4994902;28;20428;-57
2023/05/03 11:25:01;;;;;;;4.17;3.97;;;;;;;;;;4995024;28;20885;-57
2023/05/03 11:27:27;;;;;;;5.77;4.80;;;;;;;;;;4994767;28;20510;-57
2023/05/03 11:29:57;;;;;;;4.20;3.87;;;;;;;;;;4993268;28;20839;-57
2023/05/03 11:32:25;;;;;;;4.97;4.40;;;;;;;;;;4994740;28;20447;-56
2023/05/03 11:34:52;;;;;;;4.13;3.93;;;;;;;;;;4994551;28;20481;-57
2023/05/03 11:37:18;;;;;;;4.10;4.00;;;;;;;;;;4993593;28;20549;-57
2023/05/03 11:39:43;;;;;;;4.50;4.10;;;;;;;;;;4994425;28;20520;-57
2023/05/03 11:42:09;;;;;;;5.00;4.70;;;;;;;;;;4994410;28;21122;-56
2023/05/03 11:44:36;;;;;;;4.60;4.30;;;;;;;;;;4994367;28;20449;-56
2023/05/03 11:47:03;;;;;;;5.40;4.63;;;;;;;;;;4994424;28;20555;-56
2023/05/03 11:49:29;;;;;;;4.87;4.33;;;;;;;;;;4994306;28;21005;-55
2023/05/03 11:51:55;;;;;;;4.67;4.30;;;;;;;;;;4994171;28;20786;-57
2023/05/03 11:54:22;;;;;;;4.63;4.43;;;;;;;;;;4994052;28;20476;-56
2023/05/03 11:56:48;;;;;;;4.63;4.27;;;;;;;;;;4994138;28;20462;-56
2023/05/03 11:59:14;;;;;;;5.40;5.00;;;;;;;;;;4994199;28;20830;-57
2023/05/03 12:01:48;;;;;;;5.30;5.03;;;;;;;;;;4994177;28;20411;-57
2023/05/03 12:04:15;;;;;;;4.90;4.80;;;;;;;;;;4994083;28;20539;-56
2023/05/03 12:06:41;;;;;;;7.13;5.10;;;;;;;;;;4992709;28;20942;-56
2023/05/03 12:09:14;;;;;;;5.10;4.80;;;;;;;;;;4993972;28;20452;-56
2023/05/03 12:11:42;;;;;;;5.47;5.07;;;;;;;;;;4993838;28;20993;-57
2023/05/03 12:14:08;;;;;;;5.67;5.30;;;;;;;;;;4993918;28;20527;-56
2023/05/03 12:16:48;;;;;;;8.67;7.20;;;;;;;;;;4993957;28;20494;-57
2023/05/03 12:19:23;;;;;;;8.43;5.50;;;;;;;;;;4993736;28;20475;-57
2023/05/03 12:21:49;;;;;;;4.53;4.37;;;;;;;;;;4993945;28;20396;-57
2023/05/03 12:24:18;;;;;;;6.07;5.20;;;;;;;;;;4993734;28;20455;-57
2023/05/03 12:26:47;;;;;;;6.80;5.20;;;;;;;;;;4993915;28;20512;-57
2023/05/03 12:29:13;;;;;;;5.13;4.80;;;;;;;;;;4993577;28;20460;-59
2023/05/03 12:31:40;;;;;;;5.97;5.47;;;;;;;;;;4993854;28;20484;-57
2023/05/03 12:34:06;;;;;;;5.90;5.50;;;;;;;;;;4993527;28;20420;-57
2023/05/03 12:36:32;;;;;;;5.93;4.73;;;;;;;;;;4993483;28;20433;-56
2023/05/03 12:39:02;;;;;;;5.20;4.73;;;;;;;;;;4993395;28;20423;-58
2023/05/03 12:41:30;;;;;;;5.67;5.03;;;;;;;;;;4993325;28;20815;-56
2023/05/03 12:43:57;;;;;;;10.17;5.23;;;;;;;;;;4993419;28;20468;-56
2023/05/03 12:46:23;;;;;;;6.60;6.00;;;;;;;;;;4993554;28;20410;-56
2023/05/03 12:48:50;;;;;;;6.60;4.93;;;;;;;;;;4993170;28;20511;-57
2023/05/03 12:51:15;;;;;;;6.57;5.07;;;;;;;;;;4993436;28;20417;-58
2023/05/03 12:53:41;;;;;;;5.37;5.17;;;;;;;;;;4993428;28;20418;-58
2023/05/03 12:56:08;;;;;;;9.00;4.87;;;;;;;;;;4993525;28;20476;-58
2023/05/03 12:58:34;;;;;;;3.60;3.50;;;;;;;;;;4992309;28;20420;-58
2023/05/03 13:01:00;;;;;;;4.80;4.60;;;;;;;;;;4993067;28;20513;-58
2023/05/03 13:03:26;;;;;;;9.93;5.07;;;;;;;;;;4993189;28;20502;-58
2023/05/03 13:05:52;;;;;;;4.13;3.87;;;;;;;;;;4993409;28;20448;-58
2023/05/03 13:08:18;;;;;;;6.03;4.60;;;;;;;;;;4992900;28;20519;-57
2023/05/03 13:10:44;;;;;;;5.07;4.60;;;;;;;;;;4992970;28;21327;-58
2023/05/03 13:13:10;;;;;;;4.97;4.43;;;;;;;;;;4991809;28;20425;-58
2023/05/03 13:15:40;;;;;;;4.60;4.20;;;;;;;;;;4992601;28;20938;-57
2023/05/03 13:18:07;;;;;;;8.33;7.20;;;;;;;;;;4992834;28;20503;-58
2023/05/03 13:20:33;;;;;;;4.27;4.07;;;;;;;;;;4992896;28;20440;-57
2023/05/03 13:22:59;;;;;;;4.07;3.87;;;;;;;;;;4992991;28;20414;-59
2023/05/03 13:25:27;;;;;;;3.90;3.60;;;;;;;;;;4992717;28;20537;-58
2023/05/03 13:27:53;;;;;;;5.20;4.70;;;;;;;;;;4992557;28;20440;-58
2023/05/03 13:30:20;;;;;;;3.93;3.50;;;;;;;;;;4992924;28;20422;-56
2023/05/03 13:32:47;;;;;;;4.07;3.70;;;;;;;;;;4992783;28;20921;-57
2023/05/03 13:35:13;;;;;;;3.40;3.30;;;;;;;;;;4992741;28;20506;-58
2023/05/03 13:37:41;;;;;;;2.93;2.80;;;;;;;;;;4992775;28;20496;-58
2023/05/03 13:40:08;;;;;;;4.10;3.30;;;;;;;;;;4992920;28;20437;-58
2023/05/03 13:42:35;;;;;;;8.80;3.73;;;;;;;;;;4993122;28;20485;-58
2023/05/03 13:45:01;;;;;;;3.60;3.30;;;;;;;;;;4991473;28;20465;-59
2023/05/03 13:47:27;;;;;;;2.60;2.50;;;;;;;;;;4992822;28;20420;-58
2023/05/03 13:49:56;;;;;;;3.43;3.10;;;;;;;;;;4992577;28;20505;-57
2023/05/03 13:52:23;;;;;;;5.90;2.27;;;;;;;;;;4992740;28;20439;-57
2023/05/03 13:54:53;;;;;;;2.20;2.10;;;;;;;;;;4992736;28;20861;-58
2023/05/03 13:57:19;;;;;;;2.30;2.20;;;;;;;;;;4992964;28;20520;-58
2023/05/03 13:59:45;;;;;;;2.30;2.20;;;;;;;;;;4992523;28;20468;-58
2023/05/03 14:02:11;;;;;;;1.93;1.80;;;;;;;;;;4995950;28;20419;-58
2023/05/03 14:04:40;;;;;;;2.60;2.47;;;;;;;;;;4996148;28;20502;-58
2023/05/03 14:07:06;;;;;;;2.87;2.03;;;;;;;;;;4994815;28;20846;-58
2023/05/03 14:09:37;;;;;;;5.90;2.60;;;;;;;;;;4996288;28;20409;-56
2023/05/03 14:12:03;;;;;;;2.20;2.10;;;;;;;;;;4996127;28;20716;-56
2023/05/03 14:14:29;;;;;;;4.33;2.47;;;;;;;;;;4995881;28;20460;-58
2023/05/03 14:16:57;;;;;;;2.30;2.30;;;;;;;;;;4996022;28;20413;-57
2023/05/03 14:19:23;;;;;;;2.13;2.13;;;;;;;;;;4995926;28;20798;-58
2023/05/03 14:21:50;;;;;;;4.30;2.10;;;;;;;;;;4995739;28;20409;-58
2023/05/03 14:24:16;;;;;;;2.67;2.37;;;;;;;;;;4995985;28;20495;-59
2023/05/03 14:26:42;;;;;;;4.77;2.67;;;;;;;;;;4995780;28;20427;-58